sensor_id;sensor_type;location;lat;lon;timestamp;P1;durP1;ratioP1;P2;durP2;ratioP2
15142;SDS011;7672;50.834;6.286;2024-02-26T00:00:21;1.70;;;1.60;;
15142;SDS011;7672;50.834;6.286;2024-02-26T00:03:13;2.97;;;1.80;;
15142;SDS011;7672;50.834;6.286;2024-02-26T00:05:46;1.60;;;1.50;;
15142;SDS011;7672;50.834;6.286;2024-02-26T00:08:15;3.33;;;1.70;;
15142;SDS011;7672;50.834;6.286;2024-02-26T00:10:42;1.80;;;1.70;;
15142;SDS011;7672;50.834;6.286;2024-02-26T00:16:49;1.60;;;1.37;;
15142;SDS011;7672;50.834;6.286;2024-02-26T00:19:16;1.37;;;1.10;;
15142;SDS011;7672;50.834;6.286;2024-02-26T00:21:43;1.70;;;1.30;;
15142;SDS011;7672;50.834;6.286;2024-02-26T00:24:10;1.70;;;1.33;;
15142;SDS011;7672;50.834;6.286;2024-02-26T00:26:37;1.30;;;1.20;;
15142;SDS011;7672;50.834;6.286;2024-02-26T00:29:05;2.73;;;1.20;;
15142;SDS011;7672;50.834;6.286;2024-02-26T00:31:32;2.10;;;1.67;;
15142;SDS011;7672;50.834;6.286;2024-02-26T00:33:59;4.10;;;1.37;;
15142;SDS011;7672;50.834;6.286;2024-02-26T00:36:27;1.47;;;1.37;;
15142;SDS011;7672;50.834;6.286;2024-02-26T00:38:57;1.20;;;1.03;;
15142;SDS011;7672;50.834;6.286;2024-02-26T00:41:47;1.67;;;1.30;;
15142;SDS011;7672;50.834;6.286;2024-02-26T00:44:16;1.37;;;1.27;;
15142;SDS011;7672;50.834;6.286;2024-02-26T00:46:44;2.87;;;1.10;;
15142;SDS011;7672;50.834;6.286;2024-02-26T00:49:11;2.07;;;1.70;;
15142;SDS011;7672;50.834;6.286;2024-02-26T00:51:38;2.07;;;1.07;;
15142;SDS011;7672;50.834;6.286;2024-02-26T00:54:07;1.47;;;1.20;;
15142;SDS011;7672;50.834;6.286;2024-02-26T00:56:35;2.03;;;1.23;;
15142;SDS011;7672;50.834;6.286;2024-02-26T00:59:06;1.80;;;1.30;;
15142;SDS011;7672;50.834;6.286;2024-02-26T01:01:36;2.03;;;1.23;;
15142;SDS011;7672;50.834;6.286;2024-02-26T01:07:30;4.10;;;1.40;;
15142;SDS011;7672;50.834;6.286;2024-02-26T01:10:13;1.13;;;1.03;;
15142;SDS011;7672;50.834;6.286;2024-02-26T01:12:43;2.07;;;1.10;;
15142;SDS011;7672;50.834;6.286;2024-02-26T01:16:18;4.70;;;1.40;;
15142;SDS011;7672;50.834;6.286;2024-02-26T01:20:55;1.40;;;1.30;;
15142;SDS011;7672;50.834;6.286;2024-02-26T01:27:11;1.93;;;1.17;;
15142;SDS011;7672;50.834;6.286;2024-02-26T01:29:44;3.43;;;1.10;;
15142;SDS011;7672;50.834;6.286;2024-02-26T01:32:32;1.37;;;1.27;;
15142;SDS011;7672;50.834;6.286;2024-02-26T01:35:11;1.60;;;1.43;;
15142;SDS011;7672;50.834;6.286;2024-02-26T01:37:41;2.43;;;1.37;;
15142;SDS011;7672;50.834;6.286;2024-02-26T01:41:03;1.43;;;1.20;;
15142;SDS011;7672;50.834;6.286;2024-02-26T01:48:42;1.37;;;1.27;;
15142;SDS011;7672;50.834;6.286;2024-02-26T01:51:22;3.63;;;1.30;;
15142;SDS011;7672;50.834;6.286;2024-02-26T01:53:55;0.90;;;0.90;;
15142;SDS011;7672;50.834;6.286;2024-02-26T01:56:32;1.10;;;1.07;;
15142;SDS011;7672;50.834;6.286;2024-02-26T01:59:02;2.23;;;1.23;;
15142;SDS011;7672;50.834;6.286;2024-02-26T02:01:40;2.23;;;1.10;;
15142;SDS011;7672;50.834;6.286;2024-02-26T02:04:18;1.47;;;1.37;;
15142;SDS011;7672;50.834;6.286;2024-02-26T02:07:18;1.80;;;1.23;;
15142;SDS011;7672;50.834;6.286;2024-02-26T02:11:06;1.27;;;1.20;;
15142;SDS011;7672;50.834;6.286;2024-02-26T02:14:08;1.30;;;1.20;;
15142;SDS011;7672;50.834;6.286;2024-02-26T02:16:41;1.60;;;1.20;;
15142;SDS011;7672;50.834;6.286;2024-02-26T02:23:28;1.40;;;1.30;;
15142;SDS011;7672;50.834;6.286;2024-02-26T02:27:23;2.53;;;1.57;;
15142;SDS011;7672;50.834;6.286;2024-02-26T02:31:43;1.60;;;1.10;;
15142;SDS011;7672;50.834;6.286;2024-02-26T02:35:54;1.60;;;1.50;;
15142;SDS011;7672;50.834;6.286;2024-02-26T02:39:13;1.77;;;1.40;;
15142;SDS011;7672;50.834;6.286;2024-02-26T02:42:06;1.83;;;1.33;;
15142;SDS011;7672;50.834;6.286;2024-02-26T02:48:30;2.23;;;1.50;;
15142;SDS011;7672;50.834;6.286;2024-02-26T02:51:43;2.73;;;1.53;;
15142;SDS011;7672;50.834;6.286;2024-02-26T02:54:29;4.10;;;1.20;;
15142;SDS011;7672;50.834;6.286;2024-02-26T02:57:04;2.50;;;1.57;;
15142;SDS011;7672;50.834;6.286;2024-02-26T03:02:56;2.10;;;1.57;;
15142;SDS011;7672;50.834;6.286;2024-02-26T03:05:31;2.47;;;1.27;;
15142;SDS011;7672;50.834;6.286;2024-02-26T03:08:05;1.47;;;1.27;;
15142;SDS011;7672;50.834;6.286;2024-02-26T03:10:58;1.73;;;1.57;;
15142;SDS011;7672;50.834;6.286;2024-02-26T03:13:37;1.90;;;1.70;;
15142;SDS011;7672;50.834;6.286;2024-02-26T03:16:14;2.10;;;1.40;;
15142;SDS011;7672;50.834;6.286;2024-02-26T03:18:52;2.43;;;1.47;;
15142;SDS011;7672;50.834;6.286;2024-02-26T03:21:32;1.60;;;1.40;;
15142;SDS011;7672;50.834;6.286;2024-02-26T03:24:25;1.43;;;1.23;;
15142;SDS011;7672;50.834;6.286;2024-02-26T03:40:07;2.20;;;1.30;;
15142;SDS011;7672;50.834;6.286;2024-02-26T03:44:42;1.30;;;1.20;;
15142;SDS011;7672;50.834;6.286;2024-02-26T03:48:33;1.80;;;1.60;;
15142;SDS011;7672;50.834;6.286;2024-02-26T03:52:41;1.20;;;1.10;;
15142;SDS011;7672;50.834;6.286;2024-02-26T03:56:50;1.67;;;1.43;;
15142;SDS011;7672;50.834;6.286;2024-02-26T04:01:08;1.80;;;1.30;;
15142;SDS011;7672;50.834;6.286;2024-02-26T04:04:26;1.83;;;1.53;;
15142;SDS011;7672;50.834;6.286;2024-02-26T04:08:20;2.53;;;1.30;;
15142;SDS011;7672;50.834;6.286;2024-02-26T04:12:35;1.70;;;1.13;;
15142;SDS011;7672;50.834;6.286;2024-02-26T04:17:14;1.50;;;1.40;;
15142;SDS011;7672;50.834;6.286;2024-02-26T04:22:10;1.67;;;1.27;;
15142;SDS011;7672;50.834;6.286;2024-02-26T04:26:17;0.90;;;0.90;;
15142;SDS011;7672;50.834;6.286;2024-02-26T04:31:16;3.33;;;1.40;;
15142;SDS011;7672;50.834;6.286;2024-02-26T04:35:42;1.07;;;1.07;;
15142;SDS011;7672;50.834;6.286;2024-02-26T04:43:51;2.57;;;1.10;;
15142;SDS011;7672;50.834;6.286;2024-02-26T04:46:45;4.03;;;1.30;;
15142;SDS011;7672;50.834;6.286;2024-02-26T04:49:34;3.17;;;1.57;;
15142;SDS011;7672;50.834;6.286;2024-02-26T04:52:14;1.17;;;1.10;;
15142;SDS011;7672;50.834;6.286;2024-02-26T04:54:59;3.27;;;1.73;;
15142;SDS011;7672;50.834;6.286;2024-02-26T04:57:41;1.43;;;1.20;;
15142;SDS011;7672;50.834;6.286;2024-02-26T05:00:23;1.73;;;1.40;;
15142;SDS011;7672;50.834;6.286;2024-02-26T05:02:59;3.07;;;1.20;;
15142;SDS011;7672;50.834;6.286;2024-02-26T05:05:40;4.90;;;1.20;;
15142;SDS011;7672;50.834;6.286;2024-02-26T05:08:18;2.00;;;1.23;;
15142;SDS011;7672;50.834;6.286;2024-02-26T05:11:08;1.77;;;1.30;;
15142;SDS011;7672;50.834;6.286;2024-02-26T05:15:15;1.53;;;1.23;;
15142;SDS011;7672;50.834;6.286;2024-02-26T05:18:30;1.43;;;1.30;;
15142;SDS011;7672;50.834;6.286;2024-02-26T05:22:45;1.53;;;1.20;;
15142;SDS011;7672;50.834;6.286;2024-02-26T05:25:45;1.10;;;1.00;;
15142;SDS011;7672;50.834;6.286;2024-02-26T05:28:24;2.37;;;1.23;;
15142;SDS011;7672;50.834;6.286;2024-02-26T05:30:55;1.33;;;1.23;;
15142;SDS011;7672;50.834;6.286;2024-02-26T05:33:24;2.73;;;1.33;;
15142;SDS011;7672;50.834;6.286;2024-02-26T05:35:55;1.97;;;1.40;;
15142;SDS011;7672;50.834;6.286;2024-02-26T05:38:32;2.10;;;1.90;;
15142;SDS011;7672;50.834;6.286;2024-02-26T05:41:04;2.00;;;1.80;;
15142;SDS011;7672;50.834;6.286;2024-02-26T05:44:18;3.47;;;1.97;;
15142;SDS011;7672;50.834;6.286;2024-02-26T05:47:04;3.07;;;1.93;;
15142;SDS011;7672;50.834;6.286;2024-02-26T05:49:44;2.37;;;1.87;;
15142;SDS011;7672;50.834;6.286;2024-02-26T05:52:24;2.53;;;1.90;;
15142;SDS011;7672;50.834;6.286;2024-02-26T05:55:03;3.07;;;1.60;;
15142;SDS011;7672;50.834;6.286;2024-02-26T05:57:38;5.63;;;2.77;;
15142;SDS011;7672;50.834;6.286;2024-02-26T06:00:24;4.47;;;2.13;;
15142;SDS011;7672;50.834;6.286;2024-02-26T06:02:59;2.83;;;2.13;;
15142;SDS011;7672;50.834;6.286;2024-02-26T06:05:37;2.00;;;1.80;;
15142;SDS011;7672;50.834;6.286;2024-02-26T06:08:06;2.00;;;1.80;;
15142;SDS011;7672;50.834;6.286;2024-02-26T06:10:38;5.60;;;1.93;;
15142;SDS011;7672;50.834;6.286;2024-02-26T06:13:11;3.33;;;1.80;;
15142;SDS011;7672;50.834;6.286;2024-02-26T06:15:49;2.13;;;1.90;;
15142;SDS011;7672;50.834;6.286;2024-02-26T06:18:23;5.10;;;2.33;;
15142;SDS011;7672;50.834;6.286;2024-02-26T06:20:54;2.60;;;1.90;;
15142;SDS011;7672;50.834;6.286;2024-02-26T06:23:34;3.20;;;2.00;;
15142;SDS011;7672;50.834;6.286;2024-02-26T06:26:15;2.00;;;1.80;;
15142;SDS011;7672;50.834;6.286;2024-02-26T06:28:50;4.03;;;2.20;;
15142;SDS011;7672;50.834;6.286;2024-02-26T06:31:18;4.43;;;2.40;;
15142;SDS011;7672;50.834;6.286;2024-02-26T06:33:47;3.40;;;2.17;;
15142;SDS011;7672;50.834;6.286;2024-02-26T06:36:17;5.00;;;2.60;;
15142;SDS011;7672;50.834;6.286;2024-02-26T06:38:44;2.43;;;2.23;;
15142;SDS011;7672;50.834;6.286;2024-02-26T06:41:12;3.47;;;2.53;;
15142;SDS011;7672;50.834;6.286;2024-02-26T06:43:39;4.40;;;3.13;;
15142;SDS011;7672;50.834;6.286;2024-02-26T06:46:06;3.77;;;2.63;;
15142;SDS011;7672;50.834;6.286;2024-02-26T06:48:33;2.63;;;2.43;;
15142;SDS011;7672;50.834;6.286;2024-02-26T06:51:00;3.33;;;2.80;;
15142;SDS011;7672;50.834;6.286;2024-02-26T06:53:28;2.50;;;2.20;;
15142;SDS011;7672;50.834;6.286;2024-02-26T06:55:55;2.73;;;2.13;;
15142;SDS011;7672;50.834;6.286;2024-02-26T06:58:22;2.80;;;2.50;;
15142;SDS011;7672;50.834;6.286;2024-02-26T07:00:49;3.30;;;2.43;;
15142;SDS011;7672;50.834;6.286;2024-02-26T07:03:16;2.67;;;2.40;;
15142;SDS011;7672;50.834;6.286;2024-02-26T07:05:44;3.30;;;2.30;;
15142;SDS011;7672;50.834;6.286;2024-02-26T07:08:12;3.23;;;2.63;;
15142;SDS011;7672;50.834;6.286;2024-02-26T07:14:15;4.17;;;2.50;;
15142;SDS011;7672;50.834;6.286;2024-02-26T07:16:42;3.63;;;2.60;;
15142;SDS011;7672;50.834;6.286;2024-02-26T07:19:09;4.07;;;3.63;;
15142;SDS011;7672;50.834;6.286;2024-02-26T07:21:36;6.70;;;4.90;;
15142;SDS011;7672;50.834;6.286;2024-02-26T07:24:03;11.73;;;8.10;;
15142;SDS011;7672;50.834;6.286;2024-02-26T07:26:30;3.13;;;2.07;;
15142;SDS011;7672;50.834;6.286;2024-02-26T07:28:58;3.40;;;2.80;;
15142;SDS011;7672;50.834;6.286;2024-02-26T07:31:25;3.97;;;2.60;;
15142;SDS011;7672;50.834;6.286;2024-02-26T07:33:52;2.93;;;2.67;;
15142;SDS011;7672;50.834;6.286;2024-02-26T07:36:19;2.77;;;2.50;;
15142;SDS011;7672;50.834;6.286;2024-02-26T07:38:47;3.13;;;2.27;;
15142;SDS011;7672;50.834;6.286;2024-02-26T07:41:15;4.37;;;2.60;;
15142;SDS011;7672;50.834;6.286;2024-02-26T07:43:42;5.77;;;2.87;;
15142;SDS011;7672;50.834;6.286;2024-02-26T07:46:11;4.70;;;3.53;;
15142;SDS011;7672;50.834;6.286;2024-02-26T07:48:39;5.33;;;3.60;;
15142;SDS011;7672;50.834;6.286;2024-02-26T07:51:07;4.43;;;2.77;;
15142;SDS011;7672;50.834;6.286;2024-02-26T07:53:34;2.60;;;2.40;;
15142;SDS011;7672;50.834;6.286;2024-02-26T07:56:01;5.13;;;2.33;;
15142;SDS011;7672;50.834;6.286;2024-02-26T07:58:29;2.77;;;2.00;;
15142;SDS011;7672;50.834;6.286;2024-02-26T08:00:56;3.87;;;2.50;;
15142;SDS011;7672;50.834;6.286;2024-02-26T08:03:23;3.57;;;2.50;;
15142;SDS011;7672;50.834;6.286;2024-02-26T08:05:51;3.67;;;2.10;;
15142;SDS011;7672;50.834;6.286;2024-02-26T08:08:18;3.80;;;2.53;;
15142;SDS011;7672;50.834;6.286;2024-02-26T08:10:45;2.23;;;2.03;;
15142;SDS011;7672;50.834;6.286;2024-02-26T08:13:12;3.00;;;2.30;;
15142;SDS011;7672;50.834;6.286;2024-02-26T08:15:39;2.77;;;2.50;;
15142;SDS011;7672;50.834;6.286;2024-02-26T08:18:06;5.43;;;2.70;;
15142;SDS011;7672;50.834;6.286;2024-02-26T08:20:33;2.50;;;2.27;;
15142;SDS011;7672;50.834;6.286;2024-02-26T08:23:00;2.27;;;2.07;;
15142;SDS011;7672;50.834;6.286;2024-02-26T08:25:27;3.57;;;2.50;;
15142;SDS011;7672;50.834;6.286;2024-02-26T08:27:54;3.47;;;2.47;;
15142;SDS011;7672;50.834;6.286;2024-02-26T08:30:22;2.87;;;2.67;;
15142;SDS011;7672;50.834;6.286;2024-02-26T08:32:49;3.43;;;2.60;;
15142;SDS011;7672;50.834;6.286;2024-02-26T08:35:18;3.63;;;2.67;;
15142;SDS011;7672;50.834;6.286;2024-02-26T08:37:46;3.33;;;2.77;;
15142;SDS011;7672;50.834;6.286;2024-02-26T08:40:15;4.23;;;2.90;;
15142;SDS011;7672;50.834;6.286;2024-02-26T08:42:42;4.30;;;2.93;;
15142;SDS011;7672;50.834;6.286;2024-02-26T08:45:09;2.73;;;2.23;;
15142;SDS011;7672;50.834;6.286;2024-02-26T08:47:36;3.13;;;2.03;;
15142;SDS011;7672;50.834;6.286;2024-02-26T08:50:04;4.53;;;2.20;;
15142;SDS011;7672;50.834;6.286;2024-02-26T08:52:32;2.20;;;2.00;;
15142;SDS011;7672;50.834;6.286;2024-02-26T08:54:59;3.10;;;2.13;;
15142;SDS011;7672;50.834;6.286;2024-02-26T08:57:26;2.33;;;2.13;;
15142;SDS011;7672;50.834;6.286;2024-02-26T08:59:54;4.73;;;2.60;;
15142;SDS011;7672;50.834;6.286;2024-02-26T09:02:21;2.50;;;2.30;;
15142;SDS011;7672;50.834;6.286;2024-02-26T09:04:48;2.23;;;2.10;;
15142;SDS011;7672;50.834;6.286;2024-02-26T09:07:17;2.17;;;2.07;;
15142;SDS011;7672;50.834;6.286;2024-02-26T09:09:44;2.40;;;2.20;;
15142;SDS011;7672;50.834;6.286;2024-02-26T09:12:11;4.53;;;2.30;;
15142;SDS011;7672;50.834;6.286;2024-02-26T09:14:38;5.27;;;2.53;;
15142;SDS011;7672;50.834;6.286;2024-02-26T09:17:05;2.17;;;2.03;;
15142;SDS011;7672;50.834;6.286;2024-02-26T09:19:33;3.10;;;2.23;;
15142;SDS011;7672;50.834;6.286;2024-02-26T09:22:01;4.00;;;2.20;;
15142;SDS011;7672;50.834;6.286;2024-02-26T09:24:28;2.57;;;2.37;;
15142;SDS011;7672;50.834;6.286;2024-02-26T09:26:55;2.20;;;2.00;;
15142;SDS011;7672;50.834;6.286;2024-02-26T09:29:22;2.40;;;2.20;;
15142;SDS011;7672;50.834;6.286;2024-02-26T09:31:49;2.90;;;2.70;;
15142;SDS011;7672;50.834;6.286;2024-02-26T09:34:16;2.93;;;2.63;;
15142;SDS011;7672;50.834;6.286;2024-02-26T09:36:44;3.23;;;2.93;;
15142;SDS011;7672;50.834;6.286;2024-02-26T09:39:11;4.40;;;3.40;;
15142;SDS011;7672;50.834;6.286;2024-02-26T09:41:38;2.93;;;2.73;;
15142;SDS011;7672;50.834;6.286;2024-02-26T09:44:06;3.33;;;2.90;;
15142;SDS011;7672;50.834;6.286;2024-02-26T09:46:33;6.50;;;3.23;;
15142;SDS011;7672;50.834;6.286;2024-02-26T09:49:00;3.93;;;2.77;;
15142;SDS011;7672;50.834;6.286;2024-02-26T09:51:29;3.33;;;3.03;;
15142;SDS011;7672;50.834;6.286;2024-02-26T09:53:56;3.97;;;2.90;;
15142;SDS011;7672;50.834;6.286;2024-02-26T09:56:30;3.43;;;2.70;;
15142;SDS011;7672;50.834;6.286;2024-02-26T09:58:58;3.63;;;3.07;;
15142;SDS011;7672;50.834;6.286;2024-02-26T10:01:26;4.67;;;2.97;;
15142;SDS011;7672;50.834;6.286;2024-02-26T10:03:55;3.97;;;3.10;;
15142;SDS011;7672;50.834;6.286;2024-02-26T10:06:25;6.13;;;3.57;;
15142;SDS011;7672;50.834;6.286;2024-02-26T10:08:54;4.53;;;2.80;;
15142;SDS011;7672;50.834;6.286;2024-02-26T10:11:25;3.07;;;2.57;;
15142;SDS011;7672;50.834;6.286;2024-02-26T10:13:53;7.23;;;3.70;;
15142;SDS011;7672;50.834;6.286;2024-02-26T10:16:20;4.03;;;3.43;;
15142;SDS011;7672;50.834;6.286;2024-02-26T10:18:48;3.30;;;3.03;;
15142;SDS011;7672;50.834;6.286;2024-02-26T10:21:25;3.70;;;3.33;;
15142;SDS011;7672;50.834;6.286;2024-02-26T10:23:53;3.27;;;2.97;;
15142;SDS011;7672;50.834;6.286;2024-02-26T10:26:21;3.13;;;2.67;;
15142;SDS011;7672;50.834;6.286;2024-02-26T10:28:48;2.80;;;2.50;;
15142;SDS011;7672;50.834;6.286;2024-02-26T10:31:20;2.60;;;2.40;;
15142;SDS011;7672;50.834;6.286;2024-02-26T10:33:48;3.33;;;2.73;;
15142;SDS011;7672;50.834;6.286;2024-02-26T10:36:15;2.67;;;2.47;;
15142;SDS011;7672;50.834;6.286;2024-02-26T10:38:43;2.67;;;2.30;;
15142;SDS011;7672;50.834;6.286;2024-02-26T10:41:13;3.33;;;2.90;;
15142;SDS011;7672;50.834;6.286;2024-02-26T10:43:43;2.90;;;2.70;;
15142;SDS011;7672;50.834;6.286;2024-02-26T10:46:10;2.57;;;2.37;;
15142;SDS011;7672;50.834;6.286;2024-02-26T10:48:38;3.57;;;3.07;;
15142;SDS011;7672;50.834;6.286;2024-02-26T10:51:05;3.27;;;2.90;;
15142;SDS011;7672;50.834;6.286;2024-02-26T10:53:37;3.20;;;2.90;;
15142;SDS011;7672;50.834;6.286;2024-02-26T10:56:07;5.17;;;2.33;;
15142;SDS011;7672;50.834;6.286;2024-02-26T10:58:38;2.13;;;2.00;;
15142;SDS011;7672;50.834;6.286;2024-02-26T11:01:05;3.00;;;2.70;;
15142;SDS011;7672;50.834;6.286;2024-02-26T11:03:34;3.80;;;2.93;;
15142;SDS011;7672;50.834;6.286;2024-02-26T11:06:03;2.70;;;2.50;;
15142;SDS011;7672;50.834;6.286;2024-02-26T11:08:31;3.80;;;3.10;;
15142;SDS011;7672;50.834;6.286;2024-02-26T11:10:59;3.20;;;2.60;;
15142;SDS011;7672;50.834;6.286;2024-02-26T11:13:27;3.27;;;2.90;;
15142;SDS011;7672;50.834;6.286;2024-02-26T11:16:00;3.37;;;2.70;;
15142;SDS011;7672;50.834;6.286;2024-02-26T11:18:28;2.57;;;2.27;;
15142;SDS011;7672;50.834;6.286;2024-02-26T11:20:58;3.87;;;2.30;;
15142;SDS011;7672;50.834;6.286;2024-02-26T11:23:27;5.13;;;2.93;;
15142;SDS011;7672;50.834;6.286;2024-02-26T11:25:55;5.77;;;2.13;;
15142;SDS011;7672;50.834;6.286;2024-02-26T11:28:26;2.53;;;2.23;;
15142;SDS011;7672;50.834;6.286;2024-02-26T11:30:55;2.87;;;2.27;;
15142;SDS011;7672;50.834;6.286;2024-02-26T11:33:26;3.37;;;2.43;;
15142;SDS011;7672;50.834;6.286;2024-02-26T11:35:54;2.60;;;2.40;;
15142;SDS011;7672;50.834;6.286;2024-02-26T11:38:23;2.60;;;2.40;;
15142;SDS011;7672;50.834;6.286;2024-02-26T11:40:53;2.63;;;2.43;;
15142;SDS011;7672;50.834;6.286;2024-02-26T11:43:44;3.10;;;2.13;;
15142;SDS011;7672;50.834;6.286;2024-02-26T11:46:31;2.37;;;2.23;;
15142;SDS011;7672;50.834;6.286;2024-02-26T11:51:51;2.37;;;2.00;;
15142;SDS011;7672;50.834;6.286;2024-02-26T11:57:26;2.90;;;2.30;;
15142;SDS011;7672;50.834;6.286;2024-02-26T12:05:43;3.83;;;2.33;;
15142;SDS011;7672;50.834;6.286;2024-02-26T12:08:05;2.73;;;2.53;;
15142;SDS011;7672;50.834;6.286;2024-02-26T12:10:39;4.50;;;2.50;;
15142;SDS011;7672;50.834;6.286;2024-02-26T12:18:23;2.77;;;2.50;;
15142;SDS011;7672;50.834;6.286;2024-02-26T12:20:58;4.60;;;2.50;;
15142;SDS011;7672;50.834;6.286;2024-02-26T12:23:27;3.07;;;2.50;;
15142;SDS011;7672;50.834;6.286;2024-02-26T12:26:01;3.33;;;2.90;;
15142;SDS011;7672;50.834;6.286;2024-02-26T12:28:33;2.93;;;2.67;;
15142;SDS011;7672;50.834;6.286;2024-02-26T12:31:00;2.93;;;2.63;;
15142;SDS011;7672;50.834;6.286;2024-02-26T12:33:27;2.90;;;2.60;;
15142;SDS011;7672;50.834;6.286;2024-02-26T12:35:56;2.77;;;2.53;;
15142;SDS011;7672;50.834;6.286;2024-02-26T12:38:25;3.73;;;2.67;;
15142;SDS011;7672;50.834;6.286;2024-02-26T12:40:53;3.07;;;2.67;;
15142;SDS011;7672;50.834;6.286;2024-02-26T12:43:21;4.63;;;2.93;;
15142;SDS011;7672;50.834;6.286;2024-02-26T12:45:48;5.00;;;2.80;;
15142;SDS011;7672;50.834;6.286;2024-02-26T12:48:15;3.33;;;3.03;;
15142;SDS011;7672;50.834;6.286;2024-02-26T12:50:46;3.10;;;2.80;;
15142;SDS011;7672;50.834;6.286;2024-02-26T12:53:16;4.83;;;3.20;;
15142;SDS011;7672;50.834;6.286;2024-02-26T12:55:44;5.43;;;2.83;;
15142;SDS011;7672;50.834;6.286;2024-02-26T12:58:11;3.30;;;3.00;;
15142;SDS011;7672;50.834;6.286;2024-02-26T13:00:39;3.13;;;2.53;;
15142;SDS011;7672;50.834;6.286;2024-02-26T13:03:07;4.13;;;2.80;;
15142;SDS011;7672;50.834;6.286;2024-02-26T13:05:35;3.37;;;2.30;;
15142;SDS011;7672;50.834;6.286;2024-02-26T13:08:03;4.37;;;3.13;;
15142;SDS011;7672;50.834;6.286;2024-02-26T13:10:34;5.23;;;3.20;;
15142;SDS011;7672;50.834;6.286;2024-02-26T13:13:02;3.50;;;2.60;;
15142;SDS011;7672;50.834;6.286;2024-02-26T13:15:30;4.47;;;2.97;;
15142;SDS011;7672;50.834;6.286;2024-02-26T13:17:59;6.67;;;3.10;;
15142;SDS011;7672;50.834;6.286;2024-02-26T13:20:41;4.43;;;3.40;;
15142;SDS011;7672;50.834;6.286;2024-02-26T13:23:11;9.50;;;3.47;;
15142;SDS011;7672;50.834;6.286;2024-02-26T13:25:39;2.60;;;2.33;;
15142;SDS011;7672;50.834;6.286;2024-02-26T13:28:15;5.17;;;2.80;;
15142;SDS011;7672;50.834;6.286;2024-02-26T13:30:54;4.43;;;3.20;;
15142;SDS011;7672;50.834;6.286;2024-02-26T13:33:27;3.20;;;2.90;;
15142;SDS011;7672;50.834;6.286;2024-02-26T13:35:56;2.97;;;2.40;;
15142;SDS011;7672;50.834;6.286;2024-02-26T13:38:25;2.60;;;2.40;;
15142;SDS011;7672;50.834;6.286;2024-02-26T13:40:54;3.00;;;2.70;;
15142;SDS011;7672;50.834;6.286;2024-02-26T13:43:22;4.03;;;2.90;;
15142;SDS011;7672;50.834;6.286;2024-02-26T13:45:49;2.57;;;2.20;;
15142;SDS011;7672;50.834;6.286;2024-02-26T13:48:17;3.20;;;2.30;;
15142;SDS011;7672;50.834;6.286;2024-02-26T13:50:44;3.10;;;2.40;;
15142;SDS011;7672;50.834;6.286;2024-02-26T13:53:12;2.40;;;2.20;;
15142;SDS011;7672;50.834;6.286;2024-02-26T13:55:40;2.53;;;2.30;;
15142;SDS011;7672;50.834;6.286;2024-02-26T13:58:11;3.90;;;2.60;;
15142;SDS011;7672;50.834;6.286;2024-02-26T14:00:40;2.93;;;2.53;;
15142;SDS011;7672;50.834;6.286;2024-02-26T14:03:09;2.90;;;2.67;;
15142;SDS011;7672;50.834;6.286;2024-02-26T14:05:39;3.90;;;2.90;;
15142;SDS011;7672;50.834;6.286;2024-02-26T14:08:10;5.67;;;2.93;;
15142;SDS011;7672;50.834;6.286;2024-02-26T14:10:38;6.13;;;3.47;;
15142;SDS011;7672;50.834;6.286;2024-02-26T14:13:05;5.67;;;3.93;;
15142;SDS011;7672;50.834;6.286;2024-02-26T14:15:33;6.10;;;4.47;;
15142;SDS011;7672;50.834;6.286;2024-02-26T14:18:01;5.60;;;4.37;;
15142;SDS011;7672;50.834;6.286;2024-02-26T14:20:30;5.07;;;4.10;;
15142;SDS011;7672;50.834;6.286;2024-02-26T14:22:57;7.03;;;4.60;;
15142;SDS011;7672;50.834;6.286;2024-02-26T14:25:24;4.77;;;4.20;;
15142;SDS011;7672;50.834;6.286;2024-02-26T14:27:56;5.90;;;4.90;;
15142;SDS011;7672;50.834;6.286;2024-02-26T14:30:25;5.37;;;4.30;;
15142;SDS011;7672;50.834;6.286;2024-02-26T14:32:53;5.07;;;4.53;;
15142;SDS011;7672;50.834;6.286;2024-02-26T14:35:20;6.97;;;5.23;;
15142;SDS011;7672;50.834;6.286;2024-02-26T14:37:48;6.37;;;4.87;;
15142;SDS011;7672;50.834;6.286;2024-02-26T14:40:16;7.70;;;5.33;;
15142;SDS011;7672;50.834;6.286;2024-02-26T14:42:44;7.17;;;5.53;;
15142;SDS011;7672;50.834;6.286;2024-02-26T14:45:11;7.53;;;5.50;;
15142;SDS011;7672;50.834;6.286;2024-02-26T14:47:39;6.13;;;5.20;;
15142;SDS011;7672;50.834;6.286;2024-02-26T14:50:06;5.67;;;5.10;;
15142;SDS011;7672;50.834;6.286;2024-02-26T14:52:34;8.77;;;7.07;;
15142;SDS011;7672;50.834;6.286;2024-02-26T14:55:01;7.00;;;5.87;;
15142;SDS011;7672;50.834;6.286;2024-02-26T14:57:28;8.60;;;7.60;;
15142;SDS011;7672;50.834;6.286;2024-02-26T14:59:55;11.90;;;8.10;;
15142;SDS011;7672;50.834;6.286;2024-02-26T15:02:22;11.57;;;8.13;;
15142;SDS011;7672;50.834;6.286;2024-02-26T15:04:49;10.17;;;8.07;;
15142;SDS011;7672;50.834;6.286;2024-02-26T15:07:16;12.67;;;9.20;;
15142;SDS011;7672;50.834;6.286;2024-02-26T15:09:46;11.97;;;9.23;;
15142;SDS011;7672;50.834;6.286;2024-02-26T15:12:13;10.43;;;8.10;;
15142;SDS011;7672;50.834;6.286;2024-02-26T15:14:41;12.70;;;9.20;;
15142;SDS011;7672;50.834;6.286;2024-02-26T15:17:09;12.17;;;9.93;;
15142;SDS011;7672;50.834;6.286;2024-02-26T15:19:39;13.73;;;9.00;;
15142;SDS011;7672;50.834;6.286;2024-02-26T15:22:06;12.73;;;8.93;;
15142;SDS011;7672;50.834;6.286;2024-02-26T15:24:33;10.97;;;8.27;;
15142;SDS011;7672;50.834;6.286;2024-02-26T15:27:00;10.97;;;9.33;;
15142;SDS011;7672;50.834;6.286;2024-02-26T15:29:27;12.83;;;9.20;;
15142;SDS011;7672;50.834;6.286;2024-02-26T15:31:54;10.23;;;8.70;;
15142;SDS011;7672;50.834;6.286;2024-02-26T15:34:21;10.93;;;9.20;;
15142;SDS011;7672;50.834;6.286;2024-02-26T15:36:48;13.57;;;9.33;;
15142;SDS011;7672;50.834;6.286;2024-02-26T15:39:15;10.30;;;9.07;;
15142;SDS011;7672;50.834;6.286;2024-02-26T15:41:42;11.40;;;9.10;;
15142;SDS011;7672;50.834;6.286;2024-02-26T15:44:10;10.90;;;9.17;;
15142;SDS011;7672;50.834;6.286;2024-02-26T15:46:40;12.00;;;8.67;;
15142;SDS011;7672;50.834;6.286;2024-02-26T15:49:08;9.87;;;8.87;;
15142;SDS011;7672;50.834;6.286;2024-02-26T15:51:41;19.50;;;8.73;;
15142;SDS011;7672;50.834;6.286;2024-02-26T15:54:08;10.47;;;8.97;;
15142;SDS011;7672;50.834;6.286;2024-02-26T15:56:36;9.43;;;8.43;;
15142;SDS011;7672;50.834;6.286;2024-02-26T15:59:04;10.47;;;8.33;;
15142;SDS011;7672;50.834;6.286;2024-02-26T16:01:31;13.67;;;8.60;;
15142;SDS011;7672;50.834;6.286;2024-02-26T16:03:58;10.97;;;8.30;;
15142;SDS011;7672;50.834;6.286;2024-02-26T16:06:29;11.33;;;9.20;;
15142;SDS011;7672;50.834;6.286;2024-02-26T16:09:01;11.20;;;8.03;;
15142;SDS011;7672;50.834;6.286;2024-02-26T16:11:28;13.13;;;8.57;;
15142;SDS011;7672;50.834;6.286;2024-02-26T16:14:02;11.20;;;8.03;;
15142;SDS011;7672;50.834;6.286;2024-02-26T16:16:50;10.27;;;7.80;;
15142;SDS011;7672;50.834;6.286;2024-02-26T16:19:32;10.00;;;7.17;;
15142;SDS011;7672;50.834;6.286;2024-02-26T16:22:00;13.17;;;7.43;;
15142;SDS011;7672;50.834;6.286;2024-02-26T16:24:28;9.53;;;6.43;;
15142;SDS011;7672;50.834;6.286;2024-02-26T16:26:55;8.87;;;6.80;;
15142;SDS011;7672;50.834;6.286;2024-02-26T16:29:22;9.47;;;6.93;;
15142;SDS011;7672;50.834;6.286;2024-02-26T16:31:50;9.60;;;6.33;;
15142;SDS011;7672;50.834;6.286;2024-02-26T16:34:17;7.90;;;6.40;;
15142;SDS011;7672;50.834;6.286;2024-02-26T16:36:45;8.07;;;5.83;;
15142;SDS011;7672;50.834;6.286;2024-02-26T16:39:12;7.53;;;5.87;;
15142;SDS011;7672;50.834;6.286;2024-02-26T16:41:39;6.83;;;5.90;;
15142;SDS011;7672;50.834;6.286;2024-02-26T16:44:06;9.33;;;5.97;;
15142;SDS011;7672;50.834;6.286;2024-02-26T16:46:33;9.77;;;5.83;;
15142;SDS011;7672;50.834;6.286;2024-02-26T16:49:00;7.73;;;6.00;;
15142;SDS011;7672;50.834;6.286;2024-02-26T16:51:33;9.13;;;5.70;;
15142;SDS011;7672;50.834;6.286;2024-02-26T16:54:05;6.03;;;5.43;;
15142;SDS011;7672;50.834;6.286;2024-02-26T16:56:32;7.17;;;5.37;;
15142;SDS011;7672;50.834;6.286;2024-02-26T16:58:59;6.37;;;5.33;;
15142;SDS011;7672;50.834;6.286;2024-02-26T17:01:26;6.80;;;5.27;;
15142;SDS011;7672;50.834;6.286;2024-02-26T17:03:53;8.00;;;5.80;;
15142;SDS011;7672;50.834;6.286;2024-02-26T17:06:20;6.03;;;5.43;;